Terminal Aerodrome Forecast
Issued by NWS Paducah, KY

Home | Current Version | Previous Version | Text Only | Print | Product List | Glossary On
Versions: 1 2 3 4 5 6 7 8 9 10 11 12
000
FTUS43 KPAH 051129
TAFPAH
TAF
KPAH 051129Z 0512/0612 06003KT P6SM VCSH SCT050 BKN150
      TEMPO 0515/0519 3SM -TSRA BR BKN035CB
     FM051900 VRB04KT P6SM VCTS BKN035CB=

USA.gov is the U.S. government's official web portal to all federal, state and local government web resources and services.